Charlotte, North Carolina
Current Conditions -  °F | °C
As of 5:52 AM on Saturday 20 Dec 2014 (Local Time) from KCLT Reporting Station
Light Rain Light Rain  
Wind Chill: 41°   Ceiling: 4600
Heat Index: 41°   Visibility: 10mi
Dew Point: 33°   Wind: 3mph
Humidity: 73%   Direction: 360°N
Pressure: 30.2"   Gusts: NA
Location:  35.22°N, 80.84°W
Report Text: KCLT 201052Z 36003KT 10SM -RA OVC046 05/01 A3020 RMK AO2 SLP228 P0000 T00500006
Loading
Personal Weather Stations






























Interactive Weather Map New forecast layout! Learn more

10-Day Weather Forecast

Advertisements
Track Severe Weather on mobile